Home > Products > Valid Products > MTR

000
SAUS46 KSTO 022257 COR
MTRBLU
METAR KBLU 022252Z AUTO VRB04KT 10SM SCT090 16/02 A3016 RMK AO2
SLP162 T01560022 TSNO





000
SAUS46 KSTO 022157 COR
MTRBLU
METAR KBLU 022152Z AUTO 10SM FEW060 BKN085 16/01 A3017 RMK AO2
SLP162 T01610006 TSNO





000
SAUS46 KSTO 022157 COR
MTRBLU
METAR KBLU 022152Z AUTO 10SM FEW060 BKN085 16/01 A3017 RMK AO2
SLP162 T01610006 TSNO





000
SAUS46 KSTO 022057 COR
MTRBLU
METAR KBLU 022052Z AUTO 18005KT 10SM SCT055 BKN085 15/00 A3018 RMK
AO2 SLP168 T01500000 58001 TSNO





000
SAUS46 KSTO 022002 COR
MTRBLU
METAR KBLU 021952Z AUTO 00000KT 10SM BKN065 OVC080 14/01 A3018 RMK
AO2 SLP170 T01440006 TSNO





000
SAUS46 KSTO 021857 COR
MTRBLU
METAR KBLU 021852Z AUTO 25006KT 10SM SCT060 BKN070 14/01 A3019 RMK
AO2 SLP176 T01440006 TSNO





000
SAUS46 KSTO 021757 COR
MTRBLU
METAR KBLU 021752Z AUTO 17009KT 10SM CLR 14/01 A3018 RMK AO2 SLP173
T01390006 10139 20072 53007 TSNO





000
SAUS46 KSTO 021757 COR
MTRBLU
METAR KBLU 021752Z AUTO 17009KT 10SM CLR 14/01 A3018 RMK AO2 SLP173
T01390006 10139 20072 53007 TSNO





000
SAUS46 KSTO 021657 COR
MTRBLU
METAR KBLU 021652Z AUTO 16005KT 10SM CLR 13/00 A3017 RMK AO2 SLP176
T01280000 TSNO





000
SAUS46 KSTO 021657 COR
MTRBLU
METAR KBLU 021652Z AUTO 16005KT 10SM CLR 13/00 A3017 RMK AO2 SLP176
T01280000 TSNO





000
SAUS46 KSTO 021556 COR
MTRBLU
METAR KBLU 021552Z AUTO VRB03KT 10SM CLR 12/M01 A3016 RMK AO2 SLP175
T01221006 TSNO





000
SAUS46 KSTO 021457 COR
MTRBLU
METAR KBLU 021452Z AUTO 00000KT 10SM CLR 11/00 A3016 RMK AO2 SLP166
T01110000 53010 TSNO





000
SAUS46 KSTO 021354
MTRBLU
METAR KBLU 021352Z AUTO 04004KT 10SM CLR 08/M01 A3014 RMK AO2 SLP166
T00831006 TSNO





000
SAUS46 KSTO 021254
MTRBLU
METAR KBLU 021252Z AUTO 07003KT 10SM CLR 08/00 A3013 RMK AO2 SLP157
T00830000 TSNO





000
SAUS46 KSTO 021153
MTRBLU
METAR KBLU 021152Z AUTO 00000KT 10SM CLR 07/00 A3012 RMK AO2 SLP160
70002 T00720000 10100 20072 51005 TSNO





000
SAUS46 KSTO 021054
MTRBLU
METAR KBLU 021052Z AUTO 13005KT 10SM CLR 08/M01 A3012 RMK AO2 SLP150
T00831006 TSNO





000
SAUS46 KSTO 020953
MTRBLU
METAR KBLU 020952Z AUTO 15003KT 10SM CLR 09/M01 A3011 RMK AO2 SLP144
T00891006 TSNO





000
SAUS46 KSTO 020953
MTRBLU
METAR KBLU 020952Z AUTO 15003KT 10SM CLR 09/M01 A3011 RMK AO2 SLP144
T00891006 TSNO





000
SAUS46 KSTO 020854
MTRBLU
METAR KBLU 020852Z AUTO 11004KT 10SM FEW090 09/M01 A3010 RMK AO2
SLP142 T00941006 51004 TSNO





000
SAUS46 KSTO 020753
MTRBLU
METAR KBLU 020752Z AUTO 06004KT 10SM BKN095 09/00 A3010 RMK AO2
SLP144 T00940000 401610067 TSNO





000
SAUS46 KSTO 020753
MTRBLU
METAR KBLU 020752Z AUTO 06004KT 10SM BKN095 09/00 A3010 RMK AO2
SLP144 T00940000 401610067 TSNO





000
SAUS46 KSTO 020653
MTRBLU
METAR KBLU 020652Z AUTO 05005KT 10SM CLR 09/01 A3009 RMK AO2 SLP143
T00890006 TSNO





000
SAUS46 KSTO 020554
MTRBLU
METAR KBLU 020552Z AUTO 04006KT 10SM CLR 09/01 A3009 RMK AO2 SLP143
60002 T00890011 10139 20067 51011 TSNO





000
SAUS46 KSTO 020453
MTRBLU
METAR KBLU 020452Z AUTO 08004KT 10SM OVC110 07/03 A3009 RMK AO2
RAE07 SLP146 P0001 T00720033 TSNO





000
SAUS46 KSTO 020453
MTRBLU
METAR KBLU 020452Z AUTO 08004KT 10SM OVC110 07/03 A3009 RMK AO2
RAE07 SLP146 P0001 T00720033 TSNO





000
SAUS46 KSTO 020353
MTRBLU
METAR KBLU 020352Z AUTO 00000KT 5SM -RA BKN035 BKN047 OVC055 08/03
A3008 RMK AO2 RAB37 SLP148 P0001 T00780028 TSNO





000
SAUS46 KSTO 020254
MTRBLU
METAR KBLU 020252Z AUTO 19005KT 10SM BKN060 11/01 A3005 RMK AO2
SLP133 T01110006 53008 TSNO





000
SAUS46 KSTO 020154
MTRBLU
METAR KBLU 020152Z AUTO 18004KT 10SM CLR 12/01 A3003 RMK AO2 SLP129
T01220006 TSNO





000
SAUS46 KSTO 020054
MTRBLU
METAR KBLU 020052Z AUTO 18008KT 10SM BKN110 13/01 A3003 RMK AO2
SLP122 T01330011 TSNO





000
SAUS46 KSTO 012354
MTRBLU
METAR KBLU 012352Z AUTO 20008KT 10SM FEW080 OVC100 13/03 A3002 RMK
AO2 SLP122 T01280028 10161 20128 53001 TSNO





000
SAUS46 KSTO 012354
MTRBLU
METAR KBLU 012352Z AUTO 20008KT 10SM FEW080 OVC100 13/03 A3002 RMK
AO2 SLP122 T01280028 10161 20128 53001 TSNO





000
SAUS46 KSTO 012254
MTRBLU
METAR KBLU 012252Z AUTO 17006KT 10SM SCT080 14/M03 A3001 RMK AO2
SLP112 T01441028 TSNO





000
SAUS46 KSTO 012254
MTRBLU
METAR KBLU 012252Z AUTO 17006KT 10SM SCT080 14/M03 A3001 RMK AO2
SLP112 T01441028 TSNO





000
SAUS46 KSTO 012153
MTRBLU
METAR KBLU 012152Z AUTO VRB05KT 10SM BKN080 15/M03 A3001 RMK AO2
SLP111 T01501033 TSNO





000
SAUS46 KSTO 012153
MTRBLU
METAR KBLU 012152Z AUTO VRB05KT 10SM BKN080 15/M03 A3001 RMK AO2
SLP111 T01501033 TSNO





000
SAUS46 KSTO 012053
MTRBLU
METAR KBLU 012052Z AUTO VRB05KT 10SM SCT100 15/M04 A3002 RMK AO2
SLP111 T01501044 50002 TSNO





000
SAUS46 KSTO 012053
MTRBLU
METAR KBLU 012052Z AUTO VRB05KT 10SM SCT100 15/M04 A3002 RMK AO2
SLP111 T01501044 50002 TSNO





000
SAUS46 KSTO 011954
MTRBLU
METAR KBLU 011952Z AUTO VRB05KT 10SM FEW070 SCT090 14/M03 A3002 RMK
AO2 SLP112 T01391033 TSNO





000
SAUS46 KSTO 011854
MTRBLU
METAR KBLU 011852Z AUTO 00000KT 10SM FEW065 14/M03 A3002 RMK AO2
SLP112 T01391028 TSNO





000
SAUS46 KSTO 011854
MTRBLU
METAR KBLU 011852Z AUTO 00000KT 10SM FEW065 14/M03 A3002 RMK AO2
SLP112 T01391028 TSNO





000
SAUS46 KSTO 011754
MTRBLU
METAR KBLU 011752Z AUTO VRB06KT 10SM CLR 13/M03 A3001 RMK AO2 SLP113
T01331028 10139 20078 51007 TSNO





000
SAUS46 KSTO 011754
MTRBLU
METAR KBLU 011752Z AUTO VRB06KT 10SM CLR 13/M03 A3001 RMK AO2 SLP113
T01331028 10139 20078 51007 TSNO





000
SAUS46 KSTO 011654
MTRBLU
METAR KBLU 011652Z AUTO VRB06KT 10SM CLR 13/M02 A3000 RMK AO2 SLP111
T01331017 TSNO





000
SAUS46 KSTO 011654
MTRBLU
METAR KBLU 011652Z AUTO VRB06KT 10SM CLR 13/M02 A3000 RMK AO2 SLP111
T01331017 TSNO





000
SAUS46 KSTO 011553
MTRBLU
METAR KBLU 011552Z AUTO 06007G15KT 010V110 10SM CLR 11/M01 A3000 RMK
AO2 SLP115 T01111011 TSNO





000
SAUS46 KSTO 011454
MTRBLU
METAR KBLU 011452Z AUTO 06007G17KT 030V110 10SM CLR 09/M02 A2999 RMK
AO2 SLP113 T00941017 53006 TSNO





000
SAUS46 KSTO 011354
MTRBLU
METAR KBLU 011352Z AUTO 06007G16KT 010V110 10SM CLR 08/M02 A2997 RMK
AO2 SLP108 T00781022 TSNO





000
SAUS46 KSTO 011354
MTRBLU
METAR KBLU 011352Z AUTO 06007G16KT 010V110 10SM CLR 08/M02 A2997 RMK
AO2 SLP108 T00781022 TSNO





000
SAUS46 KSTO 011254
MTRBLU
METAR KBLU 011252Z AUTO 07011G20KT 10SM CLR 08/M03 A2996 RMK AO2
SLP103 T00831028 TSNO





000
SAUS46 KSTO 011254
MTRBLU
METAR KBLU 011252Z AUTO 07011G20KT 10SM CLR 08/M03 A2996 RMK AO2
SLP103 T00831028 TSNO





000
SAUS46 KSTO 011154
MTRBLU
METAR KBLU 011152Z AUTO 07009G20KT 030V110 10SM CLR 08/M02 A2996 RMK
AO2 SLP103 T00831022 10100 20083 56005 TSNO





000
SAUS46 KSTO 011154
MTRBLU
METAR KBLU 011152Z AUTO 07009G20KT 030V110 10SM CLR 08/M02 A2996 RMK
AO2 SLP103 T00831022 10100 20083 56005 TSNO





000
SAUS46 KSTO 011054
MTRBLU
METAR KBLU 011052Z AUTO 07008G18KT 030V100 10SM CLR 08/M03 A2996 RMK
AO2 SLP103 T00831028 TSNO





000
SAUS46 KSTO 011054
MTRBLU
METAR KBLU 011052Z AUTO 07008G18KT 030V100 10SM CLR 08/M03 A2996 RMK
AO2 SLP103 T00831028 TSNO





000
SAUS46 KSTO 010954
MTRBLU
METAR KBLU 010952Z AUTO 06009G24KT 020V090 10SM CLR 09/M03 A2997 RMK
AO2 SLP104 T00941033 TSNO





000
SAUS46 KSTO 010854
MTRBLU
METAR KBLU 010852Z AUTO 06010G25KT 030V090 10SM CLR 09/M03 A2998 RMK
AO2 PK WND 08029/0809 SLP109 T00941033 55005 TSNO





000
SAUS46 KSTO 010854
MTRBLU
METAR KBLU 010852Z AUTO 06010G25KT 030V090 10SM CLR 09/M03 A2998 RMK
AO2 PK WND 08029/0809 SLP109 T00941033 55005 TSNO





000
SAUS46 KSTO 010753
MTRBLU
METAR KBLU 010752Z AUTO 07014G30KT 10SM CLR 10/M04 A2998 RMK AO2 PK
WND 05030/0728 SLP111 T01001039 401280033 TSNO





000
SAUS46 KSTO 010653
MTRBLU
METAR KBLU 010652Z AUTO 07014G31KT 10SM CLR 10/M04 A2998 RMK AO2 PK
WND 09031/0649 SLP113 T01001039 TSNO





000
SAUS46 KSTO 010653
MTRBLU
METAR KBLU 010652Z AUTO 07014G31KT 10SM CLR 10/M04 A2998 RMK AO2 PK
WND 09031/0649 SLP113 T01001039 TSNO





000
SAUS46 KSTO 010553
MTRBLU
METAR KBLU 010552Z AUTO VRB06G18KT 10SM CLR 09/M03 A3000 RMK AO2
SLP120 T00941033 10128 20094 58000 TSNO





000
SAUS46 KSTO 010553
MTRBLU
METAR KBLU 010552Z AUTO VRB06G18KT 10SM CLR 09/M03 A3000 RMK AO2
SLP120 T00941033 10128 20094 58000 TSNO





000
SAUS46 KSTO 010453
MTRBLU
METAR KBLU 010452Z AUTO 05008G23KT 10SM CLR 10/M04 A3001 RMK AO2 PK
WND 05026/0442 SLP123 T01001039 TSNO





000
SAUS46 KSTO 010353
MTRBLU
METAR KBLU 010352Z AUTO 04009G19KT 340V100 10SM CLR 10/M03 A3001 RMK
AO2 SLP129 T01001028 TSNO





000
SAUS46 KSTO 010253
MTRBLU
METAR KBLU 010252Z AUTO 03007G24KT 270V190 10SM CLR 11/M03 A3000 RMK
AO2 PK WND 06026/0154 SLP126 T01061028 53000 TSNO





000
SAUS46 KSTO 010253
MTRBLU
METAR KBLU 010252Z AUTO 03007G24KT 270V190 10SM CLR 11/M03 A3000 RMK
AO2 PK WND 06026/0154 SLP126 T01061028 53000 TSNO





000
SAUS46 KSTO 010153
MTRBLU
METAR KBLU 010152Z AUTO 07008KT 030V120 10SM CLR 12/M02 A2999 RMK
AO2 SLP124 T01171017 TSNO





000
SAUS46 KSTO 010054
MTRBLU
METAR KBLU 010052Z AUTO 03011G18KT 10SM CLR 12/M02 A3000 RMK AO2 PK
WND 07026/0029 SLP124 T01221022 TSNO





000
SAUS46 KSTO 010054
MTRBLU
METAR KBLU 010052Z AUTO 03011G18KT 10SM CLR 12/M02 A3000 RMK AO2 PK
WND 07026/0029 SLP124 T01221022 TSNO





000
SAUS46 KSTO 302353
MTRBLU
METAR KBLU 302352Z AUTO 05010G22KT 020V100 10SM CLR 12/M02 A3000 RMK
AO2 SLP125 T01221017 10128 20083 58003 TSNO





000
SAUS46 KSTO 302253
MTRBLU
METAR KBLU 302252Z AUTO 05011G19KT 10SM CLR 12/M01 A3000 RMK AO2 PK
WND 06027/2226 SLP127 T01221011 TSNO





000
SAUS46 KSTO 302253
MTRBLU
METAR KBLU 302252Z AUTO 05011G19KT 10SM CLR 12/M01 A3000 RMK AO2 PK
WND 06027/2226 SLP127 T01221011 TSNO





000
SAUS46 KSTO 302153
MTRBLU
METAR KBLU 302152Z AUTO 06012G23KT 020V100 10SM BKN050 12/M01 A3001
RMK AO2 SLP132 T01171011 TSNO





000
SAUS46 KSTO 302153
MTRBLU
METAR KBLU 302152Z AUTO 06012G23KT 020V100 10SM BKN050 12/M01 A3001
RMK AO2 SLP132 T01171011 TSNO





000
SAUS46 KSTO 302053
MTRBLU
METAR KBLU 302052Z AUTO VRB06G21KT 10SM FEW046 11/M01 A3001 RMK AO2
PK WND 05026/1956 SLP131 T01111006 51006 TSNO





000
SAUS46 KSTO 301953
MTRBLU
METAR KBLU 301952Z AUTO 05013G23KT 020V090 10SM FEW045 10/M02 A3000
RMK AO2 PK WND 07030/1928 SLP131 T01001017 TSNO





000
SAUS46 KSTO 301854
MTRBLU
METAR KBLU 301852Z AUTO 06015G32KT 10SM FEW040 09/M02 A3000 RMK AO2
PK WND 05032/1851 SLP134 T00891017 TSNO





000
SAUS46 KSTO 301753
MTRBLU
METAR KBLU 301752Z AUTO VRB05KT 10SM BKN037 09/M01 A2999 RMK AO2
SLP130 T00891011 10089 20033 53012 TSNO





000
SAUS46 KSTO 301753
MTRBLU
METAR KBLU 301752Z AUTO VRB05KT 10SM BKN037 09/M01 A2999 RMK AO2
SLP130 T00891011 10089 20033 53012 TSNO





000
SAUS46 KSTO 301653
MTRBLU
METAR KBLU 301652Z AUTO 04011G17KT 350V060 10SM CLR 08/M02 A2997 RMK
AO2 PK WND 04028/1604 SLP126 T00831017 TSNO





000
SAUS46 KSTO 301553
MTRBLU
METAR KBLU 301552Z AUTO 10SM CLR 07/M02 A2996 RMK AO2 PK WND
04028/1544 SLP125 T00671022 TSNO





000
SAUS46 KSTO 301453
MTRBLU
METAR KBLU 301452Z AUTO 05014G24KT 10SM CLR 06/M02 A2995 RMK AO2
SLP111 T00561022 50001 TSNO





000
SAUS46 KSTO 301453
MTRBLU
METAR KBLU 301452Z AUTO 05014G24KT 10SM CLR 06/M02 A2995 RMK AO2
SLP111 T00561022 50001 TSNO





000
SAUS46 KSTO 301354
MTRBLU
METAR KBLU 301352Z AUTO 05008KT 10SM CLR 04/M02 A2996 RMK AO2 SLP117
T00391022 TSNO





000
SAUS46 KSTO 301354
MTRBLU
METAR KBLU 301352Z AUTO 05008KT 10SM CLR 04/M02 A2996 RMK AO2 SLP117
T00391022 TSNO





000
SAUS46 KSTO 301253
MTRBLU
METAR KBLU 301252Z AUTO 04007G22KT 360V090 10SM CLR 04/M03 A2996 RMK
AO2 SLP115 T00391028 TSNO





000
SAUS46 KSTO 301153
MTRBLU
METAR KBLU 301152Z AUTO 05012G24KT 010V090 10SM CLR 04/M03 A2994 RMK
AO2 SLP110 70036 T00391028 10039 20033 56002 TSNO





000
SAUS46 KSTO 301153
MTRBLU
METAR KBLU 301152Z AUTO 05012G24KT 010V090 10SM CLR 04/M03 A2994 RMK
AO2 SLP110 70036 T00391028 10039 20033 56002 TSNO





000
SAUS46 KSTO 301053
MTRBLU
METAR KBLU 301052Z AUTO 05008G19KT 020V090 10SM CLR 03/M03 A2995 RMK
AO2 SLP112 T00331028 TSNO





000
SAUS46 KSTO 300953
MTRBLU
METAR KBLU 300952Z AUTO 07012G23KT 030V100 10SM CLR 04/M03 A2994 RMK
AO2 PK WND 06031/0902 SLP108 T00391028 TSNO





000
SAUS46 KSTO 300853
MTRBLU
METAR KBLU 300852Z AUTO 04013G26KT 010V080 10SM CLR 04/M03 A2995 RMK
AO2 PK WND 04032/0810 SLP109 T00391028 56006 TSNO





000
SAUS46 KSTO 300753
MTRBLU
METAR KBLU 300752Z AUTO 03016G35KT 10SM CLR 04/M03 A2995 RMK AO2 PK
WND 04035/0744 SLP111 T00391028 401220028 TSNO





000
SAUS46 KSTO 300653
MTRBLU
METAR KBLU 300652Z AUTO 04011G27KT 10SM CLR 04/M02 A2996 RMK AO2 PK
WND 04027/0644 SLP113 T00391017 TSNO





000
SAUS46 KSTO 300653
MTRBLU
METAR KBLU 300652Z AUTO 04011G27KT 10SM CLR 04/M02 A2996 RMK AO2 PK
WND 04027/0644 SLP113 T00391017 TSNO





000
SAUS46 KSTO 300553
MTRBLU
METAR KBLU 300552Z AUTO 05011G19KT 020V090 10SM FEW080 03/M01 A2997
RMK AO2 SLP118 60036 T00331006 10111 20028 50002 TSNO





000
SAUS46 KSTO 300553
MTRBLU
METAR KBLU 300552Z AUTO 05011G19KT 020V090 10SM FEW080 03/M01 A2997
RMK AO2 SLP118 60036 T00331006 10111 20028 50002 TSNO





000
SAUS46 KSTO 300453
MTRBLU
METAR KBLU 300452Z AUTO 07006KT 10SM BKN050 BKN070 OVC090 03/01
A2999 RMK AO2 RAE17UPB17E32 SLP128 P0010 T00330011 TSNO





000
SAUS46 KSTO 300423
MTRBLU
SPECI KBLU 300422Z AUTO 07006KT 10SM UP SCT018 BKN035 OVC055 03/02
A3000 RMK AO2 RAE17UPB17 P0010 T00280017 TSNO





000
SAUS46 KSTO 300423
MTRBLU
SPECI KBLU 300422Z AUTO 07006KT 10SM UP SCT018 BKN035 OVC055 03/02
A3000 RMK AO2 RAE17UPB17 P0010 T00280017 TSNO





000
SAUS46 KSTO 300406
MTRBLU
SPECI KBLU 300405Z AUTO 02008G18KT 340V050 3SM +RA BR OVC014 03/01
A3002 RMK AO2 P0008 T00280011 TSNO





000
SAUS46 KSTO 300353
MTRBLU
METAR KBLU 300352Z AUTO 01009G20KT 310V040 3SM RA BR OVC015 03/01
A3003 RMK AO2 PK WND 30029/0257 RAB00 SLP145 P0026 T00280011 TSNO





000
SAUS46 KSTO 300353
MTRBLU
METAR KBLU 300352Z AUTO 01009G20KT 310V040 3SM RA BR OVC015 03/01
A3003 RMK AO2 PK WND 30029/0257 RAB00 SLP145 P0026 T00280011 TSNO





000
SAUS46 KSTO 300344 COR
MTRBLU
SPECI KBLU 300341Z AUTO 36010G17KT 330V040 2SM +RA BR FEW005 OVC015
03/02 A3002 RMK AO2 PK WND 30029/0257 RAB00 P0018 T00330017 TSNO





000
SAUS46 KSTO 300343 COR
MTRBLU
SPECI KBLU 300341Z AUTO 36010G17KT 330V040 2SM +RA BR FEW005 OVC015
03/02 A3002 RMK AO2 PK WND 30029/0257 RAB00 P0018 T00330017 TSNO





000
SAUS46 KSTO 300337 COR
MTRBLU
SPECI KBLU 300333Z AUTO 35008G19KT 1 3/4SM +RA BR FEW004 BKN016
OVC020 03/02 A3002 RMK AO2 PK WND 30029/0257 RAB00 P0013 T00330017
TSNO





000
SAUS46 KSTO 300336 COR
MTRBLU
SPECI KBLU 300333Z AUTO 35008G19KT 1 3/4SM +RA BR FEW004 BKN016
OVC020 03/02 A3002 RMK AO2 PK WND 30029/0257 RAB00 P0013 T00330017
TSNO





000
SAUS46 KSTO 300335
MTRBLU
SPECI KBLU 300333Z AUTO 35008G19KT 1 3/4SM +RA BR FEW004 BKN016
OVC020 03/02 A3002 RMK AO2 PK WND 30029/0257 RAB00 P0013 T00330017
TSNO





000
SAUS46 KSTO 300335
MTRBLU
SPECI KBLU 300333Z AUTO 35008G19KT 1 3/4SM +RA BR FEW004 BKN016
OVC020 03/02 A3002 RMK AO2 PK WND 30029/0257 RAB00 P0013 T00330017
TSNO





000
SAUS46 KSTO 300326 COR
MTRBLU
SPECI KBLU 300323Z AUTO 36009G15KT 1 3/4SM +RA BR SCT004 BKN013
OVC035 03/02 A3001 RMK AO2 PK WND 30029/0257 RAB00 P0005 T00330022
TSNO





000
SAUS46 KSTO 300325 COR
MTRBLU
SPECI KBLU 300323Z AUTO 36009G15KT 1 3/4SM +RA BR SCT004 BKN013
OVC035 03/02 A3001 RMK AO2 PK WND 30029/0257 RAB00 P0005 T00330022
TSNO





000
SAUS46 KSTO 300321 COR
MTRBLU
SPECI KBLU 300317Z AUTO 35009G16KT 2 1/2SM RA BR SCT007 BKN027
OVC044 04/02 A3000 RMK AO2 PK WND 30029/0257 RAB00 PRESRR P0001
T00390022 TSNO





000
SAUS46 KSTO 300319 COR
MTRBLU
SPECI KBLU 300317Z AUTO 35009G16KT 2 1/2SM RA BR SCT007 BKN027
OVC044 04/02 A3000 RMK AO2 PK WND 30029/0257 RAB00 PRESRR P0001
T00390022 TSNO





000
SAUS46 KSTO 300318
MTRBLU
SPECI KBLU 300317Z AUTO 35009G16KT 2 1/2SM RA BR SCT007 BKN027
OVC044 04/02 A3000 RMK AO2 PK WND 30029/0257 RAB00 PRESRR P0001
T00390022 TSNO





000
SAUS46 KSTO 300318
MTRBLU
SPECI KBLU 300317Z AUTO 35009G16KT 2 1/2SM RA BR SCT007 BKN027
OVC044 04/02 A3000 RMK AO2 PK WND 30029/0257 RAB00 PRESRR P0001
T00390022 TSNO





000
SAUS46 KSTO 300254 COR
MTRBLU
METAR KBLU 300252Z AUTO VRB05KT 10SM FEW044 BKN055 OVC085 09/00
A2996 RMK AO2 SLP108 T00890000 55008 TSNO





000
SAUS46 KSTO 300154
MTRBLU
METAR KBLU 300152Z AUTO 26007KT 200V300 10SM BKN095 10/01 A2996 RMK
AO2 SLP108 T01000006 TSNO





000
SAUS46 KSTO 300054
MTRBLU
METAR KBLU 300052Z AUTO 27010G16KT 10SM FEW042 SCT050 11/M02 A2997
RMK AO2 SLP109 T01111017 TSNO





000
SAUS46 KSTO 292354
MTRBLU
METAR KBLU 292352Z AUTO 23005G20KT 10SM FEW036 SCT048 SCT060 10/M01
A2999 RMK AO2 SLP118 T01001006 10122 20100 58015 TSNO





    US Dept of Commerce
    National Oceanic and Atmospheric Administration
    National Weather Service
    1325 East West Highway
    Silver Spring, MD 20910
    Page Author: NWS Internet Services Team
Disclaimer
Information Quality
Credits
Glossary
Privacy Policy
Freedom of Information Act (FOIA)
About Us
Career Opportunities